sensor_id;sensor_type;location;lat;lon;timestamp;pressure;altitude;pressure_sealevel;temperature;humidity
85798;BME280;76244;53.434;14.484;2024-03-17T00:02:18;101756.56;;;6.92;53.46
85798;BME280;76244;53.434;14.484;2024-03-17T00:04:49;101752.29;;;6.89;53.78
85798;BME280;76244;53.434;14.484;2024-03-17T00:07:21;101755.90;;;6.88;53.54
85798;BME280;76244;53.434;14.484;2024-03-17T00:09:53;101756.05;;;6.86;53.66
85798;BME280;76244;53.434;14.484;2024-03-17T00:12:24;101761.43;;;6.85;53.51
85798;BME280;76244;53.434;14.484;2024-03-17T00:14:56;101767.66;;;6.83;53.58
85798;BME280;76244;53.434;14.484;2024-03-17T00:17:28;101768.86;;;6.82;53.54
85798;BME280;76244;53.434;14.484;2024-03-17T00:20:01;101773.38;;;6.81;53.55
85798;BME280;76244;53.434;14.484;2024-03-17T00:22:39;101772.33;;;6.81;53.49
85798;BME280;76244;53.434;14.484;2024-03-17T00:25:11;101770.92;;;6.82;53.82
85798;BME280;76244;53.434;14.484;2024-03-17T00:27:43;101771.11;;;6.82;53.76
85798;BME280;76244;53.434;14.484;2024-03-17T00:30:15;101773.20;;;6.81;53.68
85798;BME280;76244;53.434;14.484;2024-03-17T00:32:47;101771.80;;;6.81;53.97
85798;BME280;76244;53.434;14.484;2024-03-17T00:35:18;101773.92;;;6.82;54.19
85798;BME280;76244;53.434;14.484;2024-03-17T00:37:52;101769.02;;;6.81;54.11
85798;BME280;76244;53.434;14.484;2024-03-17T00:40:24;101774.58;;;6.80;54.48
85798;BME280;76244;53.434;14.484;2024-03-17T00:42:56;101772.66;;;6.81;54.66
85798;BME280;76244;53.434;14.484;2024-03-17T00:45:28;101770.74;;;6.81;54.83
85798;BME280;76244;53.434;14.484;2024-03-17T00:47:59;101776.52;;;6.80;54.90
85798;BME280;76244;53.434;14.484;2024-03-17T00:50:31;101768.05;;;6.79;55.07
85798;BME280;76244;53.434;14.484;2024-03-17T00:53:03;101762.20;;;6.76;55.38
85798;BME280;76244;53.434;14.484;2024-03-17T00:55:35;101767.95;;;6.75;55.61
85798;BME280;76244;53.434;14.484;2024-03-17T00:58:06;101771.26;;;6.75;55.71
85798;BME280;76244;53.434;14.484;2024-03-17T01:00:38;101766.04;;;6.76;55.80
85798;BME280;76244;53.434;14.484;2024-03-17T01:03:11;101764.84;;;6.76;55.95
85798;BME280;76244;53.434;14.484;2024-03-17T01:05:43;101763.63;;;6.77;56.17
85798;BME280;76244;53.434;14.484;2024-03-17T01:08:15;101769.77;;;6.78;56.29
85798;BME280;76244;53.434;14.484;2024-03-17T01:10:48;101766.41;;;6.77;56.28
85798;BME280;76244;53.434;14.484;2024-03-17T01:13:20;101762.36;;;6.76;56.55
85798;BME280;76244;53.434;14.484;2024-03-17T01:15:54;101765.66;;;6.75;56.61
85798;BME280;76244;53.434;14.484;2024-03-17T01:18:25;101758.60;;;6.73;56.79
85798;BME280;76244;53.434;14.484;2024-03-17T01:20:57;101761.23;;;6.73;56.90
85798;BME280;76244;53.434;14.484;2024-03-17T01:23:29;101757.13;;;6.71;57.10
85798;BME280;76244;53.434;14.484;2024-03-17T01:26:01;101757.81;;;6.71;57.33
85798;BME280;76244;53.434;14.484;2024-03-17T01:28:33;101760.54;;;6.68;57.53
85798;BME280;76244;53.434;14.484;2024-03-17T01:31:08;101754.92;;;6.68;57.55
85798;BME280;76244;53.434;14.484;2024-03-17T01:33:40;101755.96;;;6.67;57.65
85798;BME280;76244;53.434;14.484;2024-03-17T01:36:12;101757.70;;;6.66;57.75
85798;BME280;76244;53.434;14.484;2024-03-17T01:38:44;101758.67;;;6.64;57.85
85798;BME280;76244;53.434;14.484;2024-03-17T01:41:15;101756.89;;;6.63;57.89
85798;BME280;76244;53.434;14.484;2024-03-17T01:43:47;101763.52;;;6.63;58.01
85798;BME280;76244;53.434;14.484;2024-03-17T01:46:19;101766.22;;;6.65;58.22
85798;BME280;76244;53.434;14.484;2024-03-17T01:48:52;101767.49;;;6.66;58.40
85798;BME280;76244;53.434;14.484;2024-03-17T01:51:23;101781.04;;;6.68;58.76
85798;BME280;76244;53.434;14.484;2024-03-17T01:53:56;101778.81;;;6.70;59.33
85798;BME280;76244;53.434;14.484;2024-03-17T01:56:28;101780.99;;;6.73;59.59
85798;BME280;76244;53.434;14.484;2024-03-17T01:59:02;101779.66;;;6.75;60.19
85798;BME280;76244;53.434;14.484;2024-03-17T02:01:35;101783.78;;;6.78;60.51
85798;BME280;76244;53.434;14.484;2024-03-17T02:04:07;101780.61;;;6.78;60.53
85798;BME280;76244;53.434;14.484;2024-03-17T02:06:38;101778.88;;;6.78;60.89
85798;BME280;76244;53.434;14.484;2024-03-17T02:09:12;101772.35;;;6.76;60.83
85798;BME280;76244;53.434;14.484;2024-03-17T02:11:43;101773.51;;;6.74;60.97
85798;BME280;76244;53.434;14.484;2024-03-17T02:14:15;101776.77;;;6.72;61.12
85798;BME280;76244;53.434;14.484;2024-03-17T02:16:48;101785.80;;;6.70;61.01
85798;BME280;76244;53.434;14.484;2024-03-17T02:19:19;101784.66;;;6.67;61.13
85798;BME280;76244;53.434;14.484;2024-03-17T02:21:51;101783.09;;;6.67;61.42
85798;BME280;76244;53.434;14.484;2024-03-17T02:24:23;101787.06;;;6.66;61.71
85798;BME280;76244;53.434;14.484;2024-03-17T02:26:55;101791.63;;;6.65;61.86
85798;BME280;76244;53.434;14.484;2024-03-17T02:29:26;101791.83;;;6.66;61.93
85798;BME280;76244;53.434;14.484;2024-03-17T02:31:59;101793.33;;;6.70;62.00
85798;BME280;76244;53.434;14.484;2024-03-17T02:34:34;101788.70;;;6.73;61.98
85798;BME280;76244;53.434;14.484;2024-03-17T02:37:06;101789.45;;;6.74;62.09
85798;BME280;76244;53.434;14.484;2024-03-17T02:39:38;101796.46;;;6.75;61.81
85798;BME280;76244;53.434;14.484;2024-03-17T02:42:10;101800.73;;;6.77;61.67
85798;BME280;76244;53.434;14.484;2024-03-17T02:44:42;101803.40;;;6.79;61.85
85798;BME280;76244;53.434;14.484;2024-03-17T02:47:13;101809.98;;;6.81;61.68
85798;BME280;76244;53.434;14.484;2024-03-17T02:49:49;101806.16;;;6.82;61.53
85798;BME280;76244;53.434;14.484;2024-03-17T02:52:22;101806.66;;;6.82;61.22
85798;BME280;76244;53.434;14.484;2024-03-17T02:54:54;101806.53;;;6.83;61.06
85798;BME280;76244;53.434;14.484;2024-03-17T02:57:30;101805.64;;;6.82;60.46
85798;BME280;76244;53.434;14.484;2024-03-17T03:00:03;101808.89;;;6.80;60.10
85798;BME280;76244;53.434;14.484;2024-03-17T03:02:35;101807.07;;;6.78;59.90
85798;BME280;76244;53.434;14.484;2024-03-17T03:05:07;101809.87;;;6.78;59.78
85798;BME280;76244;53.434;14.484;2024-03-17T03:07:39;101806.85;;;6.77;59.42
85798;BME280;76244;53.434;14.484;2024-03-17T03:10:11;101821.19;;;6.76;59.49
85798;BME280;76244;53.434;14.484;2024-03-17T03:12:42;101817.98;;;6.74;59.48
85798;BME280;76244;53.434;14.484;2024-03-17T03:15:14;101818.48;;;6.74;59.34
85798;BME280;76244;53.434;14.484;2024-03-17T03:17:45;101819.80;;;6.72;59.26
85798;BME280;76244;53.434;14.484;2024-03-17T03:20:17;101823.77;;;6.69;59.35
85798;BME280;76244;53.434;14.484;2024-03-17T03:22:49;101833.20;;;6.69;59.18
85798;BME280;76244;53.434;14.484;2024-03-17T03:25:21;101837.92;;;6.68;59.19
85798;BME280;76244;53.434;14.484;2024-03-17T03:27:53;101835.12;;;6.68;59.23
85798;BME280;76244;53.434;14.484;2024-03-17T03:30:27;101836.34;;;6.68;59.19
85798;BME280;76244;53.434;14.484;2024-03-17T03:32:59;101843.33;;;6.67;59.22
85798;BME280;76244;53.434;14.484;2024-03-17T03:35:33;101843.86;;;6.68;59.26
85798;BME280;76244;53.434;14.484;2024-03-17T03:38:05;101840.50;;;6.67;59.43
85798;BME280;76244;53.434;14.484;2024-03-17T03:40:39;101847.46;;;6.65;59.59
85798;BME280;76244;53.434;14.484;2024-03-17T03:43:10;101851.63;;;6.64;59.66
85798;BME280;76244;53.434;14.484;2024-03-17T03:45:44;101850.09;;;6.65;59.62
85798;BME280;76244;53.434;14.484;2024-03-17T03:48:15;101849.56;;;6.65;59.41
85798;BME280;76244;53.434;14.484;2024-03-17T03:50:47;101855.98;;;6.64;59.34
85798;BME280;76244;53.434;14.484;2024-03-17T03:53:18;101858.02;;;6.62;59.05
85798;BME280;76244;53.434;14.484;2024-03-17T03:55:50;101853.19;;;6.59;59.04
85798;BME280;76244;53.434;14.484;2024-03-17T03:58:21;101856.42;;;6.56;59.12
85798;BME280;76244;53.434;14.484;2024-03-17T04:00:53;101860.25;;;6.55;58.98
85798;BME280;76244;53.434;14.484;2024-03-17T04:03:25;101869.65;;;6.54;58.66
85798;BME280;76244;53.434;14.484;2024-03-17T04:06:04;101874.70;;;6.53;58.30
85798;BME280;76244;53.434;14.484;2024-03-17T04:08:36;101875.71;;;6.52;58.14
85798;BME280;76244;53.434;14.484;2024-03-17T04:11:10;101872.65;;;6.50;58.22
85798;BME280;76244;53.434;14.484;2024-03-17T04:13:41;101869.65;;;6.49;58.06
85798;BME280;76244;53.434;14.484;2024-03-17T04:16:13;101873.52;;;6.49;58.15
85798;BME280;76244;53.434;14.484;2024-03-17T04:18:45;101879.79;;;6.48;58.08
85798;BME280;76244;53.434;14.484;2024-03-17T04:21:16;101882.02;;;6.48;57.94
85798;BME280;76244;53.434;14.484;2024-03-17T04:23:48;101891.25;;;6.46;58.01
85798;BME280;76244;53.434;14.484;2024-03-17T04:26:19;101892.80;;;6.45;57.80
85798;BME280;76244;53.434;14.484;2024-03-17T04:28:51;101894.33;;;6.44;57.61
85798;BME280;76244;53.434;14.484;2024-03-17T04:31:23;101906.20;;;6.43;57.75
85798;BME280;76244;53.434;14.484;2024-03-17T04:33:54;101905.37;;;6.45;57.62
85798;BME280;76244;53.434;14.484;2024-03-17T04:36:26;101909.57;;;6.44;57.35
85798;BME280;76244;53.434;14.484;2024-03-17T04:38:58;101913.42;;;6.45;57.01
85798;BME280;76244;53.434;14.484;2024-03-17T04:41:30;101914.59;;;6.43;56.92
85798;BME280;76244;53.434;14.484;2024-03-17T04:44:01;101911.89;;;6.41;56.62
85798;BME280;76244;53.434;14.484;2024-03-17T04:46:36;101920.52;;;6.38;56.14
85798;BME280;76244;53.434;14.484;2024-03-17T04:49:08;101921.30;;;6.35;55.89
85798;BME280;76244;53.434;14.484;2024-03-17T04:51:39;101916.45;;;6.31;55.56
85798;BME280;76244;53.434;14.484;2024-03-17T04:54:11;101919.89;;;6.30;55.76
85798;BME280;76244;53.434;14.484;2024-03-17T04:56:43;101918.23;;;6.27;55.28
85798;BME280;76244;53.434;14.484;2024-03-17T04:59:14;101922.49;;;6.24;55.25
85798;BME280;76244;53.434;14.484;2024-03-17T05:01:46;101925.34;;;6.20;55.19
85798;BME280;76244;53.434;14.484;2024-03-17T05:04:19;101930.20;;;6.19;55.50
85798;BME280;76244;53.434;14.484;2024-03-17T05:06:51;101936.45;;;6.18;55.08
85798;BME280;76244;53.434;14.484;2024-03-17T05:09:23;101948.33;;;6.18;55.26
85798;BME280;76244;53.434;14.484;2024-03-17T05:11:55;101955.67;;;6.18;55.54
85798;BME280;76244;53.434;14.484;2024-03-17T05:14:26;101957.80;;;6.18;55.65
85798;BME280;76244;53.434;14.484;2024-03-17T05:16:58;101957.95;;;6.17;55.42
85798;BME280;76244;53.434;14.484;2024-03-17T05:19:30;101955.60;;;6.15;55.12
85798;BME280;76244;53.434;14.484;2024-03-17T05:22:01;101958.98;;;6.13;54.91
85798;BME280;76244;53.434;14.484;2024-03-17T05:24:33;101956.41;;;6.09;54.68
85798;BME280;76244;53.434;14.484;2024-03-17T05:27:05;101963.83;;;6.06;54.56
85798;BME280;76244;53.434;14.484;2024-03-17T05:29:36;101964.17;;;6.01;54.43
85798;BME280;76244;53.434;14.484;2024-03-17T05:32:09;101959.40;;;6.00;54.73
85798;BME280;76244;53.434;14.484;2024-03-17T05:34:41;101971.79;;;6.00;54.88
85798;BME280;76244;53.434;14.484;2024-03-17T05:37:13;101967.81;;;6.01;54.80
85798;BME280;76244;53.434;14.484;2024-03-17T05:39:46;101974.05;;;6.04;54.59
85798;BME280;76244;53.434;14.484;2024-03-17T05:42:17;101976.52;;;6.04;54.57
85798;BME280;76244;53.434;14.484;2024-03-17T05:44:50;101978.56;;;6.03;54.62
85798;BME280;76244;53.434;14.484;2024-03-17T05:47:23;101985.59;;;6.04;54.49
85798;BME280;76244;53.434;14.484;2024-03-17T05:49:55;101990.05;;;6.06;54.74
85798;BME280;76244;53.434;14.484;2024-03-17T05:52:27;101993.08;;;6.07;54.86
85798;BME280;76244;53.434;14.484;2024-03-17T05:54:58;102005.05;;;6.09;54.59
85798;BME280;76244;53.434;14.484;2024-03-17T05:57:30;102007.84;;;6.10;54.57
85798;BME280;76244;53.434;14.484;2024-03-17T06:00:03;102008.88;;;6.09;54.78
85798;BME280;76244;53.434;14.484;2024-03-17T06:02:34;102015.23;;;6.10;54.85
85798;BME280;76244;53.434;14.484;2024-03-17T06:05:07;102020.48;;;6.11;55.26
85798;BME280;76244;53.434;14.484;2024-03-17T06:07:40;102021.57;;;6.12;55.49
85798;BME280;76244;53.434;14.484;2024-03-17T06:10:12;102023.05;;;6.13;55.70
85798;BME280;76244;53.434;14.484;2024-03-17T06:12:44;102024.45;;;6.14;55.57
85798;BME280;76244;53.434;14.484;2024-03-17T06:15:16;102024.48;;;6.14;55.83
85798;BME280;76244;53.434;14.484;2024-03-17T06:17:47;102028.70;;;6.15;55.64
85798;BME280;76244;53.434;14.484;2024-03-17T06:20:20;102030.08;;;6.15;55.37
85798;BME280;76244;53.434;14.484;2024-03-17T06:22:52;102039.25;;;6.12;55.25
85798;BME280;76244;53.434;14.484;2024-03-17T06:25:23;102043.59;;;6.11;55.37
85798;BME280;76244;53.434;14.484;2024-03-17T06:27:55;102043.61;;;6.12;55.00
85798;BME280;76244;53.434;14.484;2024-03-17T06:30:27;102046.55;;;6.11;54.67
85798;BME280;76244;53.434;14.484;2024-03-17T06:33:03;102050.66;;;6.09;54.54
85798;BME280;76244;53.434;14.484;2024-03-17T06:35:37;102055.93;;;6.05;53.97
85798;BME280;76244;53.434;14.484;2024-03-17T06:38:09;102054.35;;;6.05;54.20
85798;BME280;76244;53.434;14.484;2024-03-17T06:40:41;102057.63;;;6.04;53.45
85798;BME280;76244;53.434;14.484;2024-03-17T06:43:13;102058.25;;;6.02;53.67
85798;BME280;76244;53.434;14.484;2024-03-17T06:45:45;102062.42;;;6.01;53.60
85798;BME280;76244;53.434;14.484;2024-03-17T06:48:24;102064.79;;;5.99;53.60
85798;BME280;76244;53.434;14.484;2024-03-17T06:50:56;102062.54;;;6.00;53.75
85798;BME280;76244;53.434;14.484;2024-03-17T06:53:28;102064.96;;;5.99;53.82
85798;BME280;76244;53.434;14.484;2024-03-17T06:56:00;102066.24;;;6.00;53.74
85798;BME280;76244;53.434;14.484;2024-03-17T06:58:32;102076.23;;;6.01;53.47
85798;BME280;76244;53.434;14.484;2024-03-17T07:01:04;102073.17;;;5.99;53.56
85798;BME280;76244;53.434;14.484;2024-03-17T07:03:35;102078.13;;;6.00;53.53
85798;BME280;76244;53.434;14.484;2024-03-17T07:06:11;102078.33;;;6.01;53.63
85798;BME280;76244;53.434;14.484;2024-03-17T07:08:43;102085.39;;;6.03;53.88
85798;BME280;76244;53.434;14.484;2024-03-17T07:11:15;102078.46;;;6.04;53.71
85798;BME280;76244;53.434;14.484;2024-03-17T07:13:47;102074.30;;;6.05;53.96
85798;BME280;76244;53.434;14.484;2024-03-17T07:16:20;102078.67;;;6.05;53.96
85798;BME280;76244;53.434;14.484;2024-03-17T07:18:55;102081.44;;;6.04;54.07
85798;BME280;76244;53.434;14.484;2024-03-17T07:21:28;102082.48;;;6.04;54.40
85798;BME280;76244;53.434;14.484;2024-03-17T07:23:59;102087.46;;;6.02;54.52
85798;BME280;76244;53.434;14.484;2024-03-17T07:26:34;102090.37;;;6.00;55.06
85798;BME280;76244;53.434;14.484;2024-03-17T07:29:06;102090.75;;;6.01;54.99
85798;BME280;76244;53.434;14.484;2024-03-17T07:31:39;102095.30;;;6.01;55.16
85798;BME280;76244;53.434;14.484;2024-03-17T07:34:11;102093.40;;;6.02;55.23
85798;BME280;76244;53.434;14.484;2024-03-17T07:36:43;102098.23;;;6.04;55.31
85798;BME280;76244;53.434;14.484;2024-03-17T07:39:15;102098.42;;;6.05;55.52
85798;BME280;76244;53.434;14.484;2024-03-17T07:41:46;102104.69;;;6.04;55.70
85798;BME280;76244;53.434;14.484;2024-03-17T07:44:18;102108.02;;;6.04;55.65
85798;BME280;76244;53.434;14.484;2024-03-17T07:46:49;102106.09;;;6.04;55.59
85798;BME280;76244;53.434;14.484;2024-03-17T07:49:21;102114.14;;;6.04;55.66
85798;BME280;76244;53.434;14.484;2024-03-17T07:51:52;102115.79;;;6.06;55.92
85798;BME280;76244;53.434;14.484;2024-03-17T07:54:24;102114.44;;;6.07;56.06
85798;BME280;76244;53.434;14.484;2024-03-17T07:56:56;102122.33;;;6.08;55.92
85798;BME280;76244;53.434;14.484;2024-03-17T07:59:28;102123.40;;;6.08;55.80
85798;BME280;76244;53.434;14.484;2024-03-17T08:02:00;102125.58;;;6.10;56.12
85798;BME280;76244;53.434;14.484;2024-03-17T08:04:32;102129.48;;;6.12;55.82
85798;BME280;76244;53.434;14.484;2024-03-17T08:07:04;102129.71;;;6.13;55.96
85798;BME280;76244;53.434;14.484;2024-03-17T08:09:36;102128.55;;;6.15;56.17
85798;BME280;76244;53.434;14.484;2024-03-17T08:12:15;102132.02;;;6.19;55.88
85798;BME280;76244;53.434;14.484;2024-03-17T08:14:46;102136.35;;;6.22;56.21
85798;BME280;76244;53.434;14.484;2024-03-17T08:17:18;102139.96;;;6.25;56.09
85798;BME280;76244;53.434;14.484;2024-03-17T08:19:49;102141.13;;;6.28;55.72
85798;BME280;76244;53.434;14.484;2024-03-17T08:22:21;102145.13;;;6.32;55.77
85798;BME280;76244;53.434;14.484;2024-03-17T08:24:53;102141.59;;;6.36;55.31
85798;BME280;76244;53.434;14.484;2024-03-17T08:27:24;102145.91;;;6.39;55.53
85798;BME280;76244;53.434;14.484;2024-03-17T08:29:56;102143.41;;;6.41;55.09
85798;BME280;76244;53.434;14.484;2024-03-17T08:32:28;102142.41;;;6.43;55.27
85798;BME280;76244;53.434;14.484;2024-03-17T08:35:01;102140.73;;;6.45;55.19
85798;BME280;76244;53.434;14.484;2024-03-17T08:37:33;102137.66;;;6.47;55.20
85798;BME280;76244;53.434;14.484;2024-03-17T08:40:09;102139.25;;;6.48;55.11
85798;BME280;76244;53.434;14.484;2024-03-17T08:42:41;102145.42;;;6.48;55.13
85798;BME280;76244;53.434;14.484;2024-03-17T08:45:13;102148.95;;;6.49;54.89
85798;BME280;76244;53.434;14.484;2024-03-17T08:47:44;102154.56;;;6.49;54.99
85798;BME280;76244;53.434;14.484;2024-03-17T08:50:17;102153.77;;;6.51;54.93
85798;BME280;76244;53.434;14.484;2024-03-17T08:52:50;102160.84;;;6.54;54.75
85798;BME280;76244;53.434;14.484;2024-03-17T08:55:22;102162.11;;;6.55;54.73
85798;BME280;76244;53.434;14.484;2024-03-17T08:57:53;102161.98;;;6.56;54.85
85798;BME280;76244;53.434;14.484;2024-03-17T09:00:25;102172.73;;;6.53;54.68
85798;BME280;76244;53.434;14.484;2024-03-17T09:02:56;102175.79;;;6.46;54.80
85798;BME280;76244;53.434;14.484;2024-03-17T09:05:28;102175.78;;;6.41;54.78
85798;BME280;76244;53.434;14.484;2024-03-17T09:08:00;102173.55;;;6.38;54.87
85798;BME280;76244;53.434;14.484;2024-03-17T09:10:31;102174.48;;;6.39;54.94
85798;BME280;76244;53.434;14.484;2024-03-17T09:13:03;102171.66;;;6.35;54.96
85798;BME280;76244;53.434;14.484;2024-03-17T09:15:35;102170.59;;;6.30;54.98
85798;BME280;76244;53.434;14.484;2024-03-17T09:18:06;102168.75;;;6.27;55.33
85798;BME280;76244;53.434;14.484;2024-03-17T09:20:38;102173.96;;;6.27;55.36
85798;BME280;76244;53.434;14.484;2024-03-17T09:23:10;102179.65;;;6.29;55.40
85798;BME280;76244;53.434;14.484;2024-03-17T09:25:41;102179.73;;;6.31;55.32
85798;BME280;76244;53.434;14.484;2024-03-17T09:28:13;102177.89;;;6.33;55.26
85798;BME280;76244;53.434;14.484;2024-03-17T09:30:49;102183.60;;;6.36;55.08
85798;BME280;76244;53.434;14.484;2024-03-17T09:33:24;102183.54;;;6.39;55.09
85798;BME280;76244;53.434;14.484;2024-03-17T09:35:57;102188.58;;;6.42;54.79
85798;BME280;76244;53.434;14.484;2024-03-17T09:38:29;102190.10;;;6.45;54.78
85798;BME280;76244;53.434;14.484;2024-03-17T09:41:01;102193.58;;;6.49;54.84
85798;BME280;76244;53.434;14.484;2024-03-17T09:43:34;102192.80;;;6.51;54.38
85798;BME280;76244;53.434;14.484;2024-03-17T09:46:07;102194.18;;;6.51;53.90
85798;BME280;76244;53.434;14.484;2024-03-17T09:48:38;102201.73;;;6.48;54.00
85798;BME280;76244;53.434;14.484;2024-03-17T09:51:18;102201.06;;;6.43;54.15
85798;BME280;76244;53.434;14.484;2024-03-17T09:53:50;102199.57;;;6.41;54.00
85798;BME280;76244;53.434;14.484;2024-03-17T09:56:22;102200.58;;;6.40;54.32
85798;BME280;76244;53.434;14.484;2024-03-17T09:58:55;102204.07;;;6.40;54.29
85798;BME280;76244;53.434;14.484;2024-03-17T10:01:27;102203.59;;;6.41;54.37
85798;BME280;76244;53.434;14.484;2024-03-17T10:03:59;102205.36;;;6.42;54.37
85798;BME280;76244;53.434;14.484;2024-03-17T10:06:34;102209.50;;;6.40;54.45
85798;BME280;76244;53.434;14.484;2024-03-17T10:09:17;102210.64;;;6.42;54.52
85798;BME280;76244;53.434;14.484;2024-03-17T10:11:52;102209.98;;;6.44;54.59
85798;BME280;76244;53.434;14.484;2024-03-17T10:14:25;102214.83;;;6.47;54.84
85798;BME280;76244;53.434;14.484;2024-03-17T10:16:56;102214.30;;;6.51;54.76
85798;BME280;76244;53.434;14.484;2024-03-17T10:19:28;102214.05;;;6.54;54.78
85798;BME280;76244;53.434;14.484;2024-03-17T10:22:03;102217.48;;;6.56;54.48
85798;BME280;76244;53.434;14.484;2024-03-17T10:24:34;102219.23;;;6.56;54.48
85798;BME280;76244;53.434;14.484;2024-03-17T10:27:12;102224.66;;;6.52;53.87
85798;BME280;76244;53.434;14.484;2024-03-17T10:29:44;102224.86;;;6.44;53.63
85798;BME280;76244;53.434;14.484;2024-03-17T10:32:17;102219.52;;;6.41;53.97
85798;BME280;76244;53.434;14.484;2024-03-17T10:34:48;102218.06;;;6.40;54.07
85798;BME280;76244;53.434;14.484;2024-03-17T10:37:21;102225.53;;;6.39;53.73
85798;BME280;76244;53.434;14.484;2024-03-17T10:39:55;102223.38;;;6.33;53.67
85798;BME280;76244;53.434;14.484;2024-03-17T10:42:30;102220.05;;;6.29;53.94
85798;BME280;76244;53.434;14.484;2024-03-17T10:45:02;102228.31;;;6.30;54.09
85798;BME280;76244;53.434;14.484;2024-03-17T10:47:39;102222.47;;;6.32;54.29
85798;BME280;76244;53.434;14.484;2024-03-17T10:50:18;102226.23;;;6.38;54.89
85798;BME280;76244;53.434;14.484;2024-03-17T10:52:51;102224.75;;;6.45;54.51
85798;BME280;76244;53.434;14.484;2024-03-17T10:55:25;102222.05;;;6.52;54.63
85798;BME280;76244;53.434;14.484;2024-03-17T10:58:00;102222.48;;;6.59;54.25
85798;BME280;76244;53.434;14.484;2024-03-17T11:00:36;102228.69;;;6.65;53.99
85798;BME280;76244;53.434;14.484;2024-03-17T11:03:13;102225.60;;;6.72;53.58
85798;BME280;76244;53.434;14.484;2024-03-17T11:05:48;102221.23;;;6.77;53.38
85798;BME280;76244;53.434;14.484;2024-03-17T11:08:21;102224.20;;;6.81;53.01
85798;BME280;76244;53.434;14.484;2024-03-17T11:11:03;102222.58;;;6.84;53.18
85798;BME280;76244;53.434;14.484;2024-03-17T11:13:35;102225.16;;;6.87;52.97
85798;BME280;76244;53.434;14.484;2024-03-17T11:16:26;102223.63;;;6.89;52.53
85798;BME280;76244;53.434;14.484;2024-03-17T11:19:07;102221.20;;;6.89;52.04
85798;BME280;76244;53.434;14.484;2024-03-17T11:21:38;102218.95;;;6.89;51.84
85798;BME280;76244;53.434;14.484;2024-03-17T11:24:20;102220.98;;;6.93;51.81
85798;BME280;76244;53.434;14.484;2024-03-17T11:26:52;102224.31;;;6.92;51.50
85798;BME280;76244;53.434;14.484;2024-03-17T11:29:30;102225.17;;;6.93;51.36
85798;BME280;76244;53.434;14.484;2024-03-17T11:32:26;102227.00;;;6.94;51.13
85798;BME280;76244;53.434;14.484;2024-03-17T11:35:14;102224.59;;;6.96;51.30
85798;BME280;76244;53.434;14.484;2024-03-17T11:37:48;102229.19;;;6.97;51.42
85798;BME280;76244;53.434;14.484;2024-03-17T11:40:27;102233.42;;;6.98;51.51
85798;BME280;76244;53.434;14.484;2024-03-17T11:43:04;102231.50;;;6.98;51.65
85798;BME280;76244;53.434;14.484;2024-03-17T11:45:37;102233.27;;;6.98;51.78
85798;BME280;76244;53.434;14.484;2024-03-17T11:48:14;102235.41;;;6.99;52.02
85798;BME280;76244;53.434;14.484;2024-03-17T11:50:46;102237.95;;;7.01;52.06
85798;BME280;76244;53.434;14.484;2024-03-17T11:53:19;102243.40;;;7.02;52.00
85798;BME280;76244;53.434;14.484;2024-03-17T11:55:50;102237.65;;;7.03;51.87
85798;BME280;76244;53.434;14.484;2024-03-17T11:58:23;102241.85;;;7.02;51.81
85798;BME280;76244;53.434;14.484;2024-03-17T12:00:55;102242.52;;;7.02;51.56
85798;BME280;76244;53.434;14.484;2024-03-17T12:03:26;102239.55;;;6.97;51.51
85798;BME280;76244;53.434;14.484;2024-03-17T12:05:58;102235.90;;;6.98;51.93
85798;BME280;76244;53.434;14.484;2024-03-17T12:08:31;102233.77;;;7.02;52.23
85798;BME280;76244;53.434;14.484;2024-03-17T12:11:04;102229.17;;;7.05;51.95
85798;BME280;76244;53.434;14.484;2024-03-17T12:13:37;102232.47;;;7.09;52.09
85798;BME280;76244;53.434;14.484;2024-03-17T12:16:13;102229.92;;;7.11;51.51
85798;BME280;76244;53.434;14.484;2024-03-17T12:18:47;102230.66;;;7.13;51.60
85798;BME280;76244;53.434;14.484;2024-03-17T12:21:18;102235.65;;;7.14;51.25
85798;BME280;76244;53.434;14.484;2024-03-17T12:23:50;102234.63;;;7.15;51.15
85798;BME280;76244;53.434;14.484;2024-03-17T12:26:22;102228.77;;;7.19;51.56
85798;BME280;76244;53.434;14.484;2024-03-17T12:28:54;102225.61;;;7.18;51.30
85798;BME280;76244;53.434;14.484;2024-03-17T12:31:26;102225.00;;;7.21;51.57
85798;BME280;76244;53.434;14.484;2024-03-17T12:33:58;102228.05;;;7.23;51.65
85798;BME280;76244;53.434;14.484;2024-03-17T12:36:33;102231.80;;;7.25;51.95
85798;BME280;76244;53.434;14.484;2024-03-17T12:39:15;102232.00;;;7.25;51.88
85798;BME280;76244;53.434;14.484;2024-03-17T12:42:03;102234.83;;;7.26;51.82
85798;BME280;76244;53.434;14.484;2024-03-17T12:44:36;102235.33;;;7.25;51.74
85798;BME280;76244;53.434;14.484;2024-03-17T12:47:16;102238.04;;;7.23;51.69
85798;BME280;76244;53.434;14.484;2024-03-17T12:49:50;102236.79;;;7.17;51.69
85798;BME280;76244;53.434;14.484;2024-03-17T12:52:23;102237.14;;;7.12;52.02
85798;BME280;76244;53.434;14.484;2024-03-17T12:55:03;102234.67;;;7.12;52.41
85798;BME280;76244;53.434;14.484;2024-03-17T12:58:07;102241.55;;;7.13;51.51
85798;BME280;76244;53.434;14.484;2024-03-17T13:01:00;102239.02;;;7.07;50.55
85798;BME280;76244;53.434;14.484;2024-03-17T13:03:35;102239.20;;;7.02;50.01
85798;BME280;76244;53.434;14.484;2024-03-17T13:06:20;102233.20;;;6.96;50.34
85798;BME280;76244;53.434;14.484;2024-03-17T13:08:54;102235.15;;;6.97;50.44
85798;BME280;76244;53.434;14.484;2024-03-17T13:11:26;102232.14;;;7.00;50.71
85798;BME280;76244;53.434;14.484;2024-03-17T13:13:59;102227.48;;;7.07;51.35
85798;BME280;76244;53.434;14.484;2024-03-17T13:16:30;102230.21;;;7.14;51.29
85798;BME280;76244;53.434;14.484;2024-03-17T13:19:02;102229.40;;;7.21;50.65
85798;BME280;76244;53.434;14.484;2024-03-17T13:21:34;102226.77;;;7.26;50.83